Flight Track Log - Related Links

Times and Time Zones

All times are in EDT time to prevent confusion due to time zone crossing. See the CPT7773 flight status page for this flight to view local times or setup timezone preferences in your user account.


Time Position Orientation Groundspeed Altitude Reporting Facility
EDT Latitude Longitude Course Direction KTS MPH feet Rate Location/Type
Fri 08:10:00 PM 44.3782 -108.7071 120° Southeast  Level FlightAware Approximate
Fri 08:11:00 PM 44.3562 -108.6542 120° Southeast  Level FlightAware Approximate
Fri 08:12:00 PM 44.3342 -108.6014 120° Southeast  Level FlightAware Approximate
Fri 08:13:00 PM 44.3122 -108.5486 120° Southeast  Level FlightAware Approximate
Fri 08:14:00 PM 44.2902 -108.4959 120° Southeast  Level FlightAware Approximate
Fri 08:15:00 PM 44.2681 -108.4432 120° Southeast  Level FlightAware Approximate
Fri 08:16:00 PM 44.2447 -108.3920 133° Southeast  Level FlightAware Approximate
Fri 08:17:00 PM 44.2149 -108.3473 133° Southeast  Level FlightAware Approximate
Fri 08:18:00 PM 44.1852 -108.3026 133° Southeast  Level FlightAware Approximate
Fri 08:19:00 PM 44.1554 -108.2580 133° Southeast  Level FlightAware Approximate
Fri 08:20:00 PM 44.1256 -108.2134 133° Southeast  Level FlightAware Approximate
Fri 08:21:00 PM 44.0959 -108.1688 133° Southeast  Level FlightAware Approximate
Fri 08:22:00 PM 44.0662 -108.1241 133° Southeast  Level FlightAware Approximate
Fri 08:23:00 PM 44.0365 -108.0795 133° Southeast  Level FlightAware Approximate
Fri 08:24:00 PM 44.0068 -108.0350 133° Southeast  Level FlightAware Approximate
Fri 08:25:00 PM 43.9771 -107.9905 133° Southeast  Level FlightAware Approximate
Fri 08:26:00 PM 43.9480 -107.9453 120° Southeast  Level FlightAware Approximate
Fri 08:27:00 PM 43.9262 -107.8927 120° Southeast  Level FlightAware Approximate
Fri 08:28:00 PM 43.9043 -107.8402 120° Southeast  Level FlightAware Approximate
Fri 08:29:00 PM 43.8824 -107.7877 120° Southeast  Level FlightAware Approximate
Fri 08:30:00 PM 43.8591 -107.7365 128° Southeast  Level FlightAware Approximate
Fri 08:31:00 PM 43.8322 -107.6888 128° Southeast  Level FlightAware Approximate
Fri 08:32:00 PM 43.8054 -107.6410 128° Southeast  Level FlightAware Approximate
Fri 08:32:21 PM 43.8950 -107.8150 128° Southeast 164 189 11,000  Level Denver Center
Fri 08:33:00 PM 43.7784 -107.5933 128° Southeast  Level FlightAware Approximate
Fri 08:34:00 PM 43.8443 -107.7439 135° Southeast  Level Estimated
Fri 08:34:00 PM 43.7515 -107.5456 128° Southeast  Level FlightAware Approximate
Fri 08:35:00 PM 43.7246 -107.4980 128° Southeast  Level FlightAware Approximate
Fri 08:36:00 PM 43.6976 -107.4504 128° Southeast  Level FlightAware Approximate
Fri 08:37:00 PM 43.6706 -107.4029 128° Southeast  Level FlightAware Approximate
Fri 08:41:00 PM 43.6285 -107.4438 135° Southeast  Level Estimated
Fri 08:41:14 PM 43.5717 -107.1822 135° Southeast 164 189 11,000  Level Denver Center
Fri 08:42:00 PM 43.5976 -107.4011 135° Southeast  Level Estimated
Fri 08:42:16 PM 43.5453 -107.1328 126° Southeast 166 191 11,100  Level Denver Center
Fri 08:43:00 PM 43.5667 -107.3584 135° Southeast  Level Estimated
Fri 08:43:18 PM 43.5208 -107.0839 125° Southeast 164 189 11,100  Level Denver Center
Fri 08:44:00 PM 43.5358 -107.3158 135° Southeast  Level Estimated
Fri 08:44:20 PM 43.4903 -107.0281 127° Southeast 163 188 11,000  Level Denver Center
Fri 08:45:00 PM 43.5049 -107.2732 135° Southeast  Level Estimated
Fri 08:45:22 PM 43.4619 -106.9767 127° Southeast 162 186 11,100  Level Denver Center
Fri 08:46:00 PM 43.4739 -107.2307 135° Southeast  Level Estimated
Fri 08:46:24 PM 43.4369 -106.9256 124° Southeast 160 184 11,100  Level Denver Center
Fri 08:47:26 PM 43.4114 -106.8781 127° Southeast 160 184 11,100  Level Denver Center
Fri 08:48:28 PM 43.3817 -106.8231 127° Southeast 160 184 11,100 -98 Level Denver Center
Fri 08:49:29 PM 43.3539 -106.7819 133° Southeast 156 180 10,900 -195 Descending Denver Center
Fri 08:50:31 PM 43.3064 -106.7556 158° South 156 180 10,700 -194 Descending Denver Center
Fri 08:51:33 PM 43.2667 -106.7272 153° Southeast 163 188 10,500 -242 Descending Denver Center
Fri 08:52:35 PM 43.2217 -106.6931 151° Southeast 165 190 10,200 -242 Descending Denver Center
Fri 08:53:37 PM 43.1822 -106.6625 151° Southeast 167 192 10,000 -242 Descending Denver Center
Fri 08:54:39 PM 43.1408 -106.6339 153° Southeast 171 197 9,700 -290 Descending Denver Center
Fri 08:55:41 PM 43.0936 -106.5992 152° Southeast 172 198 9,400 -435 Descending Denver Center
Fri 08:56:43 PM 43.0517 -106.5692 152° Southeast 174 200 8,800 -829 Descending Denver Center
Fri 08:57:44 PM 43.0000 -106.5303 151° Southeast 182 209 7,700 -976 Descending Denver Center
Fri 08:58:46 PM 42.9533 -106.5028 157° South 186 214 6,800 -532 Descending Denver Center
Fri 08:59:48 PM 42.9011 -106.4736 158° South 187 215 6,600 -194 Descending Denver Center
Fri 09:01:00 PM 42.9080 -106.4644 150° Southeast  Level Estimated

Login

Don't have an account? Register now (free) for customized features, flight alerts, and more!